Hovedside
METAR-TAF:

METAR-TAF

Lufthavner :

Seinäjoki lufthavn

Seinäjoki-Ilmajoki, Finland

breddegrad: 62-41-37N, lengdegrad: 022-49-55E, høyde over havet: 91 m

Gjeldene værobservasjon

Denne rapporten ble laget for 10 minutter siden, klokken 20:20 UTC
Vind 7 kt fra Vest, skiftende mellom Sørvest og Nordvest
Temperatur 2°C
Luftfuktighet 100%
Trykk 1011 hPa
Sikt: 8000 m
Overskyet i en høyde av 200 ft

METAR: EFSI 142020Z AUTO 27007KT 230V310 8000 OVC002 02/02 Q1011

Tid: 22:30 (20:30 UTC)


TAF: fraværende

Værobservasjoner og værvarsel for over 4000 flyplasser (METAR- og TAF-rapporter).

Tilgjengelige stasjoner er representert av de røde og gule prikkene på kartet.

Hold musepekeren over prikken for å se navnet på stasjonen.

Klikk så for å se værobservasjoner og -varsler.

For å forandre kartet kan du klikke på den grønne knappen med svart kryss for å zoome inn, på den grønne knappen med strek for å zoome ut, eller på de grønne pilene for å se tilstøtende kart.


METAR-TAF: